Rio Bravo — D5BA9 — position and weather

sailwx.info

Track history (hours):
 
Tides and Currents Weather Stations Pressure Air Temp Water Temp Dewpoint Dewpoint Depression Visibility Wind Speed Wind Dir Waves Ship Positions

Rio Bravo

Last reported at 2017-Nov-20 06:00 UTC. Time now 2017-Nov-21 04:53 UTC.
Position N 36°36' W 000°30'.

Length 286 m; draft 13.3 m.

Type: Ship (hazmat cat D). MMSI: 636092361.

Wind from 090 at 10 knots

Barometer 1021.9 mb
Air temperature 18.9 ° C
Visibility: greater than 10.8 NM
Dewpoint 14.0 ° C
Water temperature 19.0 ° C

Date/timePositionNaut miles runAvg speedWind from/ knotsBaromVisibWave heightAir tempDewpointWater temp
2017-Nov-20 06:00N 36°36' W 000°30'23119.3 090 / 101021.910.8 18.914.019.0
2017-Nov-19 18:00N 35°54' W 005°12'5322.7 070 / 181019.710.8 18.014.916.0
2017-Nov-19 17:59N 35°59' W 005°13'919.4
2017-Nov-19 17:30N 35°57' W 005°24'17118.4
2017-Nov-19 08:11N 36°27' W 008°53'318.9
2017-Nov-19 08:00N 36°28' W 008°57'918.9
2017-Nov-19 07:30N 36°31' W 009°08'918.5
2017-Nov-19 07:00N 36°35' W 009°18'1019.4
2017-Nov-19 06:30N 36°42' W 009°26'918.9
2017-Nov-19 06:00N 36°50' W 009°32'1019.3
2017-Nov-19 05:31N 36°60' W 009°35'918.8
2017-Nov-19 05:01N 37°09' W 009°38'918.8
2017-Nov-19 04:30N 37°18' W 009°41'1019.1
2017-Nov-19 04:01N 37°27' W 009°43'1019.4
2017-Nov-19 03:31N 37°37' W 009°46'1019.6
2017-Nov-19 03:01N 37°46' W 009°49'1019.6
2017-Nov-19 02:31N 37°56' W 009°51'1019.7
2017-Nov-19 02:00N 38°05' W 009°54'1019.9
2017-Nov-19 01:31N 38°15' W 009°57'1019.5
2017-Nov-19 01:00N 38°25' W 009°60'1019.7
2017-Nov-19 00:31N 38°34' W 010°03'1019.6
2017-Nov-19 00:01N 38°44' W 010°05'1019.3
2017-Nov-18 23:30N 38°53' W 010°05'1019.1
2017-Nov-18 23:01N 39°03' W 010°05'1019.5
2017-Nov-18 22:31N 39°13' W 010°06'1019.5
2017-Nov-18 22:00N 39°22' W 010°06'1020.0
2017-Nov-18 21:30N 39°32' W 010°06'1019.4
2017-Nov-18 21:00N 39°42' W 010°06'1019.7
2017-Nov-18 20:30N 39°52' W 010°07'1019.8
2017-Nov-18 20:00N 40°02' W 010°07'1020.0
2017-Nov-18 19:30N 40°12' W 010°07'1120.1
2017-Nov-18 18:59N 40°22' W 010°07'920.1
2017-Nov-18 18:30N 40°32' W 010°06'1020.0
2017-Nov-18 18:00N 40°42' W 010°06'011.0
2017-Nov-18 18:00N 40°42' W 010°06'1019.9 350 / 71019.7 2.2 17.010.420.0
2017-Nov-18 17:30N 40°52' W 010°05'21518.7
2017-Nov-18 06:00N 44°24' W 009°18'14619.3 110 / 171023.410.8 14.210.018.0
2017-Nov-17 22:26N 46°32' W 007°40'1017.8
2017-Nov-17 21:51N 46°41' W 007°32'719.1
2017-Nov-17 21:30N 46°47' W 007°28'1019.3
2017-Nov-17 20:59N 46°56' W 007°21'1019.3
2017-Nov-17 20:29N 47°05' W 007°14'919.2
2017-Nov-17 20:00N 47°13' W 007°09'1019.0
2017-Nov-17 19:31N 47°21' W 007°02'1019.7
2017-Nov-17 18:59N 47°30' W 006°55'1020.5
2017-Nov-17 18:30N 47°39' W 006°47'1223.6
2017-Nov-17 18:00N 47°48' W 006°36'324.7 050 / 151028.010.8 11.2 6.514.0
2017-Nov-17 17:53N 47°50' W 006°39'819.9
2017-Nov-17 17:29N 47°57' W 006°33'919.4
2017-Nov-17 17:00N 48°05' W 006°27'1218.6
2017-Nov-17 16:23N 48°15' W 006°19'818.2
2017-Nov-17 15:55N 48°23' W 006°13'818.1
2017-Nov-17 15:28N 48°30' W 006°07'1017.5
2017-Nov-17 14:53N 48°39' W 006°00'1517.4
2017-Nov-17 14:02N 48°52' W 005°49'016.8
2017-Nov-17 14:00N 48°52' W 005°48'1215.6
2017-Nov-17 13:13N 48°60' W 005°33'812.6
2017-Nov-17 12:37N 49°03' W 005°23'311.7
2017-Nov-17 12:21N 49°05' W 005°19'610.7
2017-Nov-17 11:48N 49°08' W 005°11'7816.9
2017-Nov-17 07:12N 49°46' W 003°27'316.9
2017-Nov-17 07:00N 49°48' W 003°23'816.5
2017-Nov-17 06:30N 49°52' W 003°12'816.2
2017-Nov-17 06:00N 49°56' W 003°01'4327.4
2017-Nov-17 06:00N 49°54' W 002°54'611.6 040 / 111028.710.8 8.6 4.813.0
2017-Nov-17 05:30N 49°59' W 002°49'816.1
2017-Nov-17 05:00N 50°01' W 002°37'1016.6
2017-Nov-17 04:23N 50°04' W 002°21'617.2
2017-Nov-17 04:00N 50°06' W 002°12'917.9
2017-Nov-17 03:30N 50°09' W 001°59'918.9
2017-Nov-17 03:00N 50°11' W 001°44'1019.7
2017-Nov-17 02:30N 50°14' W 001°30'1020.3
2017-Nov-17 02:00N 50°17' W 001°14'1020.8
2017-Nov-17 01:30N 50°19' W 000°59'2420.0
2017-Nov-17 00:19N 50°25' W 000°22'619.3
2017-Nov-17 00:00N 50°27' W 000°13'918.8
2017-Nov-16 23:31N 50°30' E 000°01'918.5
2017-Nov-16 23:01N 50°33' E 000°14'917.9
2017-Nov-16 22:31N 50°35' E 000°28'917.2
2017-Nov-16 22:01N 50°38' E 000°41'917.1
2017-Nov-16 21:31N 50°43' E 000°51'816.8
2017-Nov-16 21:00N 50°48' E 001°03'817.0
2017-Nov-16 20:31N 50°53' E 001°14'917.6
2017-Nov-16 20:00N 50°59' E 001°24'1019.3
2017-Nov-16 19:30N 51°06' E 001°35'1019.7
2017-Nov-16 19:01N 51°13' E 001°45'1019.6
2017-Nov-16 18:31N 51°21' E 001°55'714.7
2017-Nov-16 18:01N 51°23' E 002°06'917.1
2017-Nov-16 17:31N 51°21' E 002°19'918.2
2017-Nov-16 17:00N 51°23' E 002°33'612.2
2017-Nov-16 16:30N 51°23' E 002°43'612.1
2017-Nov-16 16:01N 51°25' E 002°52'816.0
2017-Nov-16 15:31N 51°24' E 003°05'816.2
2017-Nov-16 15:01N 51°25' E 003°18'816.6
2017-Nov-16 14:31N 51°25' E 003°31'510.9
2017-Nov-16 14:00N 51°26' E 003°39'713.9
2017-Nov-16 13:30N 51°21' E 003°47'612.9
2017-Nov-16 13:01N 51°23' E 003°57'3 6.8
2017-Nov-16 12:30N 51°24' E 004°02'5 9.6
2017-Nov-16 12:00N 51°23' E 004°09'4 8.1
2017-Nov-16 11:30N 51°21' E 004°15'0 0.9
2017-Nov-16 11:00N 51°21' E 004°16'0 0.0
2017-Nov-16 10:31N 51°21' E 004°16'0 0.0
2017-Nov-16 10:01N 51°21' E 004°16'0 0.0
2017-Nov-16 09:30N 51°21' E 004°16'0 0.0
2017-Nov-16 09:00N 51°21' E 004°16'0 0.0
2017-Nov-16 08:31N 51°21' E 004°16'0 0.0
2017-Nov-16 08:00N 51°21' E 004°16'0 0.0
2017-Nov-16 07:29N 51°21' E 004°16'0 0.0
2017-Nov-16 07:01N 51°21' E 004°16'0 0.0
2017-Nov-16 06:31N 51°21' E 004°16'0 0.0
2017-Nov-16 06:01N 51°21' E 004°16'0 0.0
2017-Nov-16 05:29N 51°21' E 004°16'0 0.0
2017-Nov-16 05:01N 51°21' E 004°16'0 0.0
2017-Nov-16 04:31N 51°21' E 004°16'0 0.0
2017-Nov-16 04:01N 51°21' E 004°16'0 0.0
2017-Nov-16 03:30N 51°21' E 004°16'0 0.0
2017-Nov-16 03:01N 51°21' E 004°16'0 0.0
2017-Nov-16 02:31N 51°21' E 004°16'0 0.0
2017-Nov-16 01:58N 51°21' E 004°16'0 0.0
2017-Nov-16 01:31N 51°21' E 004°16'0 0.0
2017-Nov-16 01:00N 51°21' E 004°16'0 0.0
2017-Nov-16 00:30N 51°21' E 004°16'0 0.0
2017-Nov-16 00:00N 51°21' E 004°16'0 0.0
2017-Nov-15 23:30N 51°21' E 004°16'0 0.0
2017-Nov-15 23:01N 51°21' E 004°16'0 0.0
2017-Nov-15 22:28N 51°21' E 004°16'0 0.0
2017-Nov-15 22:00N 51°21' E 004°16'0 0.0
2017-Nov-15 21:30N 51°21' E 004°16'0 0.0
2017-Nov-15 21:01N 51°21' E 004°16'0 0.0
2017-Nov-15 20:30N 51°21' E 004°16'0 0.0
2017-Nov-15 19:59N 51°21' E 004°16'0 0.0
2017-Nov-15 19:30N 51°21' E 004°16'0 0.0
2017-Nov-15 19:01N 51°21' E 004°16'0 0.0
2017-Nov-15 18:31N 51°21' E 004°16'0 0.0
2017-Nov-15 18:00N 51°21' E 004°16'0 0.0
2017-Nov-15 17:30N 51°21' E 004°16'0 0.0
2017-Nov-15 16:58N 51°21' E 004°16'0 0.0
2017-Nov-15 16:31N 51°21' E 004°16'0 0.0
2017-Nov-15 15:58N 51°21' E 004°16'0 0.0
2017-Nov-15 15:31N 51°21' E 004°16'0 0.0
2017-Nov-15 15:01N 51°21' E 004°16'0 0.0
2017-Nov-15 14:29N 51°21' E 004°16'0 0.0
2017-Nov-15 14:01N 51°21' E 004°16'0 0.0
2017-Nov-15 13:30N 51°21' E 004°16'0 0.0
2017-Nov-15 13:01N 51°21' E 004°16'0 0.0
2017-Nov-15 12:30N 51°21' E 004°16'0 0.0
2017-Nov-15 12:01N 51°21' E 004°16'1 1.4
2017-Nov-15 11:30N 51°21' E 004°15'4 7.4
2017-Nov-15 11:00N 51°23' E 004°10'510.2
2017-Nov-15 10:30N 51°24' E 004°02'4 8.4
2017-Nov-15 10:00N 51°23' E 003°56'612.7
2017-Nov-15 09:30N 51°22' E 003°46'713.1
2017-Nov-15 09:00N 51°26' E 003°39'612.0
2017-Nov-15 08:30N 51°25' E 003°30'917.1
2017-Nov-15 08:00N 51°25' E 003°16'816.0
2017-Nov-15 07:30N 51°24' E 003°03'511.0
2017-Nov-15 07:00N 51°30' E 003°04'816.7
2017-Nov-15 06:30N 51°37' E 003°10'714.2
2017-Nov-15 06:00N 51°44' E 003°14'5 9.8
2017-Nov-15 05:29N 51°48' E 003°18'3 5.4
2017-Nov-15 05:00N 51°49' E 003°22'0 0.2
2017-Nov-15 03:30N 51°49' E 003°23'0 0.0
2017-Nov-15 02:18N 51°49' E 003°23'0 0.0
2017-Nov-15 01:48N 51°49' E 003°23'0 0.0
2017-Nov-15 01:30N 51°49' E 003°23'0 0.0
2017-Nov-15 00:57N 51°49' E 003°23'0 0.0
2017-Nov-15 00:30N 51°49' E 003°23'0 0.0
2017-Nov-15 00:00N 51°49' E 003°23'0 0.0
2017-Nov-14 23:21N 51°49' E 003°23'0 0.1
2017-Nov-14 23:00N 51°49' E 003°23'0 0.0
2017-Nov-14 22:27N 51°49' E 003°23'0 0.1
2017-Nov-14 21:54N 51°49' E 003°23'0 0.0
2017-Nov-14 21:30N 51°49' E 003°23'0 0.0
2017-Nov-14 21:00N 51°49' E 003°23'0 0.1
2017-Nov-14 20:30N 51°49' E 003°23'0 0.2
2017-Nov-14 19:54N 51°49' E 003°23'0 0.1
2017-Nov-14 19:30N 51°49' E 003°23'0 0.0
2017-Nov-14 18:57N 51°49' E 003°23'0 0.1
2017-Nov-14 18:30N 51°49' E 003°22'0 0.0
2017-Nov-14 18:00N 51°49' E 003°22'0 0.0
2017-Nov-14 17:30N 51°49' E 003°22'0 0.0
2017-Nov-14 16:57N 51°49' E 003°22'0 0.2
2017-Nov-14 16:30N 51°49' E 003°23'0 0.2
2017-Nov-14 16:00N 51°49' E 003°23'0 0.1
2017-Nov-14 15:30N 51°49' E 003°23'0 0.1
2017-Nov-14 15:00N 51°49' E 003°23'0 0.1
2017-Nov-14 14:30N 51°49' E 003°23'0 0.1
2017-Nov-14 13:57N 51°49' E 003°23'0 0.0
2017-Nov-14 13:27N 51°49' E 003°23'0 0.0
2017-Nov-14 12:57N 51°49' E 003°23'0 0.0
2017-Nov-14 12:30N 51°49' E 003°23'1 1.2
2017-Nov-14 12:00N 51°50' E 003°23'5 9.2
2017-Nov-14 11:30N 51°54' E 003°20'913.2
2017-Nov-14 10:49N 52°03' E 003°21'410.4
2017-Nov-14 10:26N 52°07' E 003°23'510.7
2017-Nov-14 10:00N 52°11' E 003°24'711.0
2017-Nov-14 09:21N 52°18' E 003°26'411.4
2017-Nov-14 08:58N 52°23' E 003°27'711.9
2017-Nov-14 08:25N 52°29' E 003°29'512.2
2017-Nov-14 07:59N 52°34' E 003°30'611.7
2017-Nov-14 07:30N 52°39' E 003°34'612.0
2017-Nov-14 07:00N 52°44' E 003°40'612.0
2017-Nov-14 06:30N 52°49' E 003°46'611.9
2017-Nov-14 06:00N 52°53' E 003°52'176.8
2017-Nov-14 06:00N 52°54' E 003°54'510.0 280 / 181019.010.8 10.4 5.211.0
2017-Nov-14 05:30N 52°58' E 003°59'611.7
2017-Nov-14 05:00N 53°02' E 004°07'611.4
2017-Nov-14 04:30N 53°05' E 004°14'611.1
2017-Nov-14 04:00N 53°09' E 004°21'510.8
2017-Nov-14 03:30N 53°13' E 004°26'23 9.8
2017-Nov-14 01:09N 53°31' E 004°51'8311.6
2017-Nov-13 18:00N 53°54' E 007°06'53 3.3 290 / 151018.810.8 8.4 4.411.0
2017-Nov-13 01:59N 53°36' E 008°31'0 0.0
2017-Nov-13 01:29N 53°36' E 008°31'0 0.0
2017-Nov-13 00:59N 53°36' E 008°31'0 0.0
2017-Nov-13 00:29N 53°36' E 008°31'0 0.0
2017-Nov-12 23:59N 53°36' E 008°31'0 0.0
2017-Nov-12 23:29N 53°36' E 008°31'0 0.0
2017-Nov-12 22:59N 53°36' E 008°31'0 0.0
2017-Nov-12 22:29N 53°36' E 008°31'0 0.0
2017-Nov-12 21:59N 53°36' E 008°31'0 0.0
2017-Nov-12 21:29N 53°36' E 008°31'0 0.0
2017-Nov-12 20:59N 53°36' E 008°31'0 0.0
2017-Nov-12 20:29N 53°36' E 008°31'0 0.0
2017-Nov-12 19:59N 53°36' E 008°31'0 0.0
2017-Nov-12 19:29N 53°36' E 008°31'0 0.0
2017-Nov-12 18:59N 53°36' E 008°31'0 0.0
2017-Nov-12 18:29N 53°36' E 008°31'0 0.0
2017-Nov-12 17:59N 53°36' E 008°31'0 0.0
2017-Nov-12 17:29N 53°36' E 008°31'0 0.0
2017-Nov-12 16:59N 53°36' E 008°31'0 0.0
2017-Nov-12 16:26N 53°36' E 008°31'0 0.0
2017-Nov-12 15:59N 53°36' E 008°31'0 0.0
2017-Nov-12 15:29N 53°36' E 008°31'0 0.0
2017-Nov-12 14:59N 53°36' E 008°31'0 0.0
2017-Nov-12 14:29N 53°36' E 008°31'0 0.0
2017-Nov-12 13:59N 53°36' E 008°31'0 0.0
2017-Nov-12 13:29N 53°36' E 008°31'0 0.0
2017-Nov-12 13:00N 53°36' E 008°31'0 0.2
2017-Nov-12 12:30N 53°36' E 008°31'4 8.3
2017-Nov-12 12:00N 53°39' E 008°25'4 8.0
2017-Nov-12 11:31N 53°42' E 008°21'815.8
2017-Nov-12 11:00N 53°46' E 008°10'816.3
2017-Nov-12 10:30N 53°51' E 007°59'612.9
2017-Nov-12 10:00N 53°53' E 007°48'510.2
2017-Nov-12 09:30N 53°53' E 007°39'6 9.8
2017-Nov-12 08:53N 53°54' E 007°29'411.1
2017-Nov-12 08:30N 53°53' E 007°22'3614.4
2017-Nov-12 06:00N 53°42' E 006°24'5513.7 290 / 161001.010.8 8.2 0.711.0
2017-Nov-12 02:00N 53°28' E 004°55'1913.8
2017-Nov-12 00:36N 53°13' E 004°34'214.5
2017-Nov-12 00:26N 53°11' E 004°33'614.8
2017-Nov-12 00:00N 53°05' E 004°28'714.5
2017-Nov-11 23:30N 52°59' E 004°22'714.7
2017-Nov-11 23:00N 52°52' E 004°16'714.6
2017-Nov-11 22:30N 52°46' E 004°10'814.7
2017-Nov-11 21:59N 52°40' E 004°02'714.4
2017-Nov-11 21:30N 52°34' E 003°56'714.6
2017-Nov-11 21:00N 52°27' E 003°53'714.6
2017-Nov-11 20:30N 52°20' E 003°52'714.6
2017-Nov-11 20:00N 52°13' E 003°54'714.3
2017-Nov-11 19:31N 52°06' E 003°54'3 6.9
2017-Nov-11 19:00N 52°02' E 003°55'510.9
2017-Nov-11 18:30N 51°59' E 004°03'1 2.4
2017-Nov-11 18:00N 51°58' E 004°02'2 3.1
2017-Nov-11 17:30N 51°57' E 004°00'0 1.0
2017-Nov-11 17:00N 51°57' E 003°60'0 0.0
2017-Nov-11 16:30N 51°57' E 003°60'0 0.0
2017-Nov-11 16:00N 51°57' E 003°60'0 0.0
2017-Nov-11 15:30N 51°57' E 003°60'0 0.0
2017-Nov-11 15:00N 51°57' E 003°60'0 0.0
2017-Nov-11 14:30N 51°57' E 003°60'0 0.0
2017-Nov-11 14:00N 51°57' E 003°60'0 0.0
2017-Nov-11 13:30N 51°57' E 003°60'0 0.0
2017-Nov-11 13:00N 51°57' E 003°60'0 0.0
2017-Nov-11 12:30N 51°57' E 003°60'0 0.0
2017-Nov-11 12:00N 51°57' E 003°60'0 0.0
2017-Nov-11 11:30N 51°57' E 003°60'0 0.0
2017-Nov-11 11:00N 51°57' E 003°60'0 0.0
2017-Nov-11 10:30N 51°57' E 003°60'0 0.0
2017-Nov-11 10:00N 51°57' E 003°60'0 0.0
2017-Nov-11 09:30N 51°57' E 003°60'0 0.0
2017-Nov-11 09:00N 51°57' E 003°60'0 0.0
2017-Nov-11 08:30N 51°57' E 003°60'0 0.0
2017-Nov-11 08:00N 51°57' E 003°60'0 0.0
2017-Nov-11 07:30N 51°57' E 003°60'0 0.1
2017-Nov-11 07:00N 51°57' E 003°59'0 0.1
2017-Nov-11 06:30N 51°57' E 003°60'0 0.0
2017-Nov-11 06:00N 51°57' E 003°59'0 0.0
2017-Nov-11 05:30N 51°57' E 003°60'0 0.0
2017-Nov-11 05:00N 51°57' E 003°60'0 0.0
2017-Nov-11 04:30N 51°57' E 003°60'0 0.0
2017-Nov-11 04:00N 51°57' E 003°60'0 0.0
2017-Nov-11 03:30N 51°57' E 003°60'0 0.0
2017-Nov-11 03:00N 51°57' E 003°60'0 0.0
2017-Nov-11 02:30N 51°57' E 003°60'0 0.1
2017-Nov-11 02:01N 51°57' E 003°60'2 3.6
2017-Nov-11 01:31N 51°58' E 004°02'2 3.7
2017-Nov-11 01:00N 51°59' E 004°05'4 8.6
2017-Nov-11 00:30N 51°60' E 003°58'4 8.1
2017-Nov-11 00:00N 52°01' E 003°51'3 6.2
2017-Nov-10 23:31N 51°59' E 003°47'612.3
2017-Nov-10 23:01N 51°58' E 003°37'1912.5
2017-Nov-10 21:28N 51°53' E 003°07'511.7
2017-Nov-10 21:00N 51°53' E 002°58'812.1
2017-Nov-10 20:19N 51°53' E 002°45'812.4
2017-Nov-10 19:41N 51°53' E 002°32'212.5
2017-Nov-10 19:30N 51°53' E 002°28'612.7
2017-Nov-10 18:59N 51°53' E 002°18'612.8
2017-Nov-10 18:30N 51°52' E 002°08'613.0
2017-Nov-10 18:00N 51°50' E 001°58'6218399722.4
2017-Nov-10 18:00S 51°48' E 001°54'621712817.7 290 / 131018.410.8 9.8 3.112.0
2017-Nov-10 17:30N 51°49' E 001°48'612.9
2017-Nov-10 17:00N 51°52' E 001°39'4 8.6
2017-Nov-10 16:31N 51°54' E 001°34'713.2
2017-Nov-10 16:01N 51°56' E 001°23'4 7.2
2017-Nov-10 15:30N 51°57' E 001°18'0 0.0
2017-Nov-10 15:00N 51°58' E 001°18'0 0.0
2017-Nov-10 14:31N 51°58' E 001°18'0 0.0
2017-Nov-10 14:01N 51°57' E 001°18'0 0.0
2017-Nov-10 13:31N 51°57' E 001°18'0 0.0
2017-Nov-10 13:01N 51°58' E 001°18'0 0.0
2017-Nov-10 12:30N 51°58' E 001°18'0 0.0
2017-Nov-10 12:01N 51°57' E 001°18'0 0.0
2017-Nov-10 11:31N 51°58' E 001°18'0 0.0
2017-Nov-10 10:57N 51°57' E 001°18'0 0.0
2017-Nov-10 10:31N 51°58' E 001°18'0 0.0
2017-Nov-10 09:58N 51°57' E 001°18'0 0.0
2017-Nov-10 09:28N 51°58' E 001°18'0 0.0
2017-Nov-10 09:01N 51°58' E 001°18'0 0.0
2017-Nov-10 08:30N 51°57' E 001°18'0 0.0
2017-Nov-10 08:01N 51°57' E 001°18'0 0.0
2017-Nov-10 07:28N 51°57' E 001°18'0 0.0
2017-Nov-10 06:58N 51°57' E 001°18'0 0.0
2017-Nov-10 06:31N 51°58' E 001°18'0 0.0
2017-Nov-10 06:01N 51°58' E 001°18'  
Track history (hours):
 
Tides and Currents Weather Stations Pressure Air Temp Water Temp Dewpoint Dewpoint Depression Visibility Wind Speed Wind Dir Waves Ship Positions

Rio Bravo

Last reported at 2017-Nov-20 06:00 UTC. Time now 2017-Nov-21 04:53 UTC.
Position N 36°36' W 000°30'.

Length 286 m; draft 13.3 m.

Type: Ship (hazmat cat D). MMSI: 636092361.

Wind from 090 at 10 knots

Barometer 1021.9 mb
Air temperature 18.9 ° C
Visibility: greater than 10.8 NM
Dewpoint 14.0 ° C
Water temperature 19.0 ° C

Date/timePositionNaut miles runAvg speedWind from/ knotsBaromVisibWave heightAir tempDewpointWater temp
2017-Nov-20 06:00N 36°36' W 000°30'23119.3 090 / 101021.910.8 18.914.019.0
2017-Nov-19 18:00N 35°54' W 005°12'5322.7 070 / 181019.710.8 18.014.916.0
2017-Nov-19 17:59N 35°59' W 005°13'919.4
2017-Nov-19 17:30N 35°57' W 005°24'17118.4
2017-Nov-19 08:11N 36°27' W 008°53'318.9
2017-Nov-19 08:00N 36°28' W 008°57'918.9
2017-Nov-19 07:30N 36°31' W 009°08'918.5
2017-Nov-19 07:00N 36°35' W 009°18'1019.4
2017-Nov-19 06:30N 36°42' W 009°26'918.9
2017-Nov-19 06:00N 36°50' W 009°32'1019.3
2017-Nov-19 05:31N 36°60' W 009°35'918.8
2017-Nov-19 05:01N 37°09' W 009°38'918.8
2017-Nov-19 04:30N 37°18' W 009°41'1019.1
2017-Nov-19 04:01N 37°27' W 009°43'1019.4
2017-Nov-19 03:31N 37°37' W 009°46'1019.6
2017-Nov-19 03:01N 37°46' W 009°49'1019.6
2017-Nov-19 02:31N 37°56' W 009°51'1019.7
2017-Nov-19 02:00N 38°05' W 009°54'1019.9
2017-Nov-19 01:31N 38°15' W 009°57'1019.5
2017-Nov-19 01:00N 38°25' W 009°60'1019.7
2017-Nov-19 00:31N 38°34' W 010°03'1019.6
2017-Nov-19 00:01N 38°44' W 010°05'1019.3
2017-Nov-18 23:30N 38°53' W 010°05'1019.1
2017-Nov-18 23:01N 39°03' W 010°05'1019.5
2017-Nov-18 22:31N 39°13' W 010°06'1019.5
2017-Nov-18 22:00N 39°22' W 010°06'1020.0
2017-Nov-18 21:30N 39°32' W 010°06'1019.4
2017-Nov-18 21:00N 39°42' W 010°06'1019.7
2017-Nov-18 20:30N 39°52' W 010°07'1019.8
2017-Nov-18 20:00N 40°02' W 010°07'1020.0
2017-Nov-18 19:30N 40°12' W 010°07'1120.1
2017-Nov-18 18:59N 40°22' W 010°07'920.1
2017-Nov-18 18:30N 40°32' W 010°06'1020.0
2017-Nov-18 18:00N 40°42' W 010°06'011.0
2017-Nov-18 18:00N 40°42' W 010°06'1019.9 350 / 71019.7 2.2 17.010.420.0
2017-Nov-18 17:30N 40°52' W 010°05'21518.7
2017-Nov-18 06:00N 44°24' W 009°18'14619.3 110 / 171023.410.8 14.210.018.0
2017-Nov-17 22:26N 46°32' W 007°40'1017.8
2017-Nov-17 21:51N 46°41' W 007°32'719.1
2017-Nov-17 21:30N 46°47' W 007°28'1019.3
2017-Nov-17 20:59N 46°56' W 007°21'1019.3
2017-Nov-17 20:29N 47°05' W 007°14'919.2
2017-Nov-17 20:00N 47°13' W 007°09'1019.0
2017-Nov-17 19:31N 47°21' W 007°02'1019.7
2017-Nov-17 18:59N 47°30' W 006°55'1020.5
2017-Nov-17 18:30N 47°39' W 006°47'1223.6
2017-Nov-17 18:00N 47°48' W 006°36'324.7 050 / 151028.010.8 11.2 6.514.0
2017-Nov-17 17:53N 47°50' W 006°39'819.9
2017-Nov-17 17:29N 47°57' W 006°33'919.4
2017-Nov-17 17:00N 48°05' W 006°27'1218.6
2017-Nov-17 16:23N 48°15' W 006°19'818.2
2017-Nov-17 15:55N 48°23' W 006°13'818.1
2017-Nov-17 15:28N 48°30' W 006°07'1017.5
2017-Nov-17 14:53N 48°39' W 006°00'1517.4
2017-Nov-17 14:02N 48°52' W 005°49'016.8
2017-Nov-17 14:00N 48°52' W 005°48'1215.6
2017-Nov-17 13:13N 48°60' W 005°33'812.6
2017-Nov-17 12:37N 49°03' W 005°23'311.7
2017-Nov-17 12:21N 49°05' W 005°19'610.7
2017-Nov-17 11:48N 49°08' W 005°11'7816.9
2017-Nov-17 07:12N 49°46' W 003°27'316.9
2017-Nov-17 07:00N 49°48' W 003°23'816.5
2017-Nov-17 06:30N 49°52' W 003°12'816.2
2017-Nov-17 06:00N 49°56' W 003°01'4327.4
2017-Nov-17 06:00N 49°54' W 002°54'611.6 040 / 111028.710.8 8.6 4.813.0
2017-Nov-17 05:30N 49°59' W 002°49'816.1
2017-Nov-17 05:00N 50°01' W 002°37'1016.6
2017-Nov-17 04:23N 50°04' W 002°21'617.2
2017-Nov-17 04:00N 50°06' W 002°12'917.9
2017-Nov-17 03:30N 50°09' W 001°59'918.9
2017-Nov-17 03:00N 50°11' W 001°44'1019.7
2017-Nov-17 02:30N 50°14' W 001°30'1020.3
2017-Nov-17 02:00N 50°17' W 001°14'1020.8
2017-Nov-17 01:30N 50°19' W 000°59'2420.0
2017-Nov-17 00:19N 50°25' W 000°22'619.3
2017-Nov-17 00:00N 50°27' W 000°13'918.8
2017-Nov-16 23:31N 50°30' E 000°01'918.5
2017-Nov-16 23:01N 50°33' E 000°14'917.9
2017-Nov-16 22:31N 50°35' E 000°28'917.2
2017-Nov-16 22:01N 50°38' E 000°41'917.1
2017-Nov-16 21:31N 50°43' E 000°51'816.8
2017-Nov-16 21:00N 50°48' E 001°03'817.0
2017-Nov-16 20:31N 50°53' E 001°14'917.6
2017-Nov-16 20:00N 50°59' E 001°24'1019.3
2017-Nov-16 19:30N 51°06' E 001°35'1019.7
2017-Nov-16 19:01N 51°13' E 001°45'1019.6
2017-Nov-16 18:31N 51°21' E 001°55'714.7
2017-Nov-16 18:01N 51°23' E 002°06'917.1
2017-Nov-16 17:31N 51°21' E 002°19'918.2
2017-Nov-16 17:00N 51°23' E 002°33'612.2
2017-Nov-16 16:30N 51°23' E 002°43'612.1
2017-Nov-16 16:01N 51°25' E 002°52'816.0
2017-Nov-16 15:31N 51°24' E 003°05'816.2
2017-Nov-16 15:01N 51°25' E 003°18'816.6
2017-Nov-16 14:31N 51°25' E 003°31'510.9
2017-Nov-16 14:00N 51°26' E 003°39'713.9
2017-Nov-16 13:30N 51°21' E 003°47'612.9
2017-Nov-16 13:01N 51°23' E 003°57'3 6.8
2017-Nov-16 12:30N 51°24' E 004°02'5 9.6
2017-Nov-16 12:00N 51°23' E 004°09'4 8.1
2017-Nov-16 11:30N 51°21' E 004°15'0 0.9
2017-Nov-16 11:00N 51°21' E 004°16'0 0.0
2017-Nov-16 10:31N 51°21' E 004°16'0 0.0
2017-Nov-16 10:01N 51°21' E 004°16'0 0.0
2017-Nov-16 09:30N 51°21' E 004°16'0 0.0
2017-Nov-16 09:00N 51°21' E 004°16'0 0.0
2017-Nov-16 08:31N 51°21' E 004°16'0 0.0
2017-Nov-16 08:00N 51°21' E 004°16'0 0.0
2017-Nov-16 07:29N 51°21' E 004°16'0 0.0
2017-Nov-16 07:01N 51°21' E 004°16'0 0.0
2017-Nov-16 06:31N 51°21' E 004°16'0 0.0
2017-Nov-16 06:01N 51°21' E 004°16'0 0.0
2017-Nov-16 05:29N 51°21' E 004°16'0 0.0
2017-Nov-16 05:01N 51°21' E 004°16'0 0.0
2017-Nov-16 04:31N 51°21' E 004°16'0 0.0
2017-Nov-16 04:01N 51°21' E 004°16'0 0.0
2017-Nov-16 03:30N 51°21' E 004°16'0 0.0
2017-Nov-16 03:01N 51°21' E 004°16'0 0.0
2017-Nov-16 02:31N 51°21' E 004°16'0 0.0
2017-Nov-16 01:58N 51°21' E 004°16'0 0.0
2017-Nov-16 01:31N 51°21' E 004°16'0 0.0
2017-Nov-16 01:00N 51°21' E 004°16'0 0.0
2017-Nov-16 00:30N 51°21' E 004°16'0 0.0
2017-Nov-16 00:00N 51°21' E 004°16'0 0.0
2017-Nov-15 23:30N 51°21' E 004°16'0 0.0
2017-Nov-15 23:01N 51°21' E 004°16'0 0.0
2017-Nov-15 22:28N 51°21' E 004°16'0 0.0
2017-Nov-15 22:00N 51°21' E 004°16'0 0.0
2017-Nov-15 21:30N 51°21' E 004°16'0 0.0
2017-Nov-15 21:01N 51°21' E 004°16'0 0.0
2017-Nov-15 20:30N 51°21' E 004°16'0 0.0
2017-Nov-15 19:59N 51°21' E 004°16'0 0.0
2017-Nov-15 19:30N 51°21' E 004°16'0 0.0
2017-Nov-15 19:01N 51°21' E 004°16'0 0.0
2017-Nov-15 18:31N 51°21' E 004°16'0 0.0
2017-Nov-15 18:00N 51°21' E 004°16'0 0.0
2017-Nov-15 17:30N 51°21' E 004°16'0 0.0
2017-Nov-15 16:58N 51°21' E 004°16'0 0.0
2017-Nov-15 16:31N 51°21' E 004°16'0 0.0
2017-Nov-15 15:58N 51°21' E 004°16'0 0.0
2017-Nov-15 15:31N 51°21' E 004°16'0 0.0
2017-Nov-15 15:01N 51°21' E 004°16'0 0.0
2017-Nov-15 14:29N 51°21' E 004°16'0 0.0
2017-Nov-15 14:01N 51°21' E 004°16'0 0.0
2017-Nov-15 13:30N 51°21' E 004°16'0 0.0
2017-Nov-15 13:01N 51°21' E 004°16'0 0.0
2017-Nov-15 12:30N 51°21' E 004°16'0 0.0
2017-Nov-15 12:01N 51°21' E 004°16'1 1.4
2017-Nov-15 11:30N 51°21' E 004°15'4 7.4
2017-Nov-15 11:00N 51°23' E 004°10'510.2
2017-Nov-15 10:30N 51°24' E 004°02'4 8.4
2017-Nov-15 10:00N 51°23' E 003°56'612.7
2017-Nov-15 09:30N 51°22' E 003°46'713.1
2017-Nov-15 09:00N 51°26' E 003°39'612.0
2017-Nov-15 08:30N 51°25' E 003°30'917.1
2017-Nov-15 08:00N 51°25' E 003°16'816.0
2017-Nov-15 07:30N 51°24' E 003°03'511.0
2017-Nov-15 07:00N 51°30' E 003°04'816.7
2017-Nov-15 06:30N 51°37' E 003°10'714.2
2017-Nov-15 06:00N 51°44' E 003°14'5 9.8
2017-Nov-15 05:29N 51°48' E 003°18'3 5.4
2017-Nov-15 05:00N 51°49' E 003°22'0 0.2
2017-Nov-15 03:30N 51°49' E 003°23'0 0.0
2017-Nov-15 02:18N 51°49' E 003°23'0 0.0
2017-Nov-15 01:48N 51°49' E 003°23'0 0.0
2017-Nov-15 01:30N 51°49' E 003°23'0 0.0
2017-Nov-15 00:57N 51°49' E 003°23'0 0.0
2017-Nov-15 00:30N 51°49' E 003°23'0 0.0
2017-Nov-15 00:00N 51°49' E 003°23'0 0.0
2017-Nov-14 23:21N 51°49' E 003°23'0 0.1
2017-Nov-14 23:00N 51°49' E 003°23'0 0.0
2017-Nov-14 22:27N 51°49' E 003°23'0 0.1
2017-Nov-14 21:54N 51°49' E 003°23'0 0.0
2017-Nov-14 21:30N 51°49' E 003°23'0 0.0
2017-Nov-14 21:00N 51°49' E 003°23'0 0.1
2017-Nov-14 20:30N 51°49' E 003°23'0 0.2
2017-Nov-14 19:54N 51°49' E 003°23'0 0.1
2017-Nov-14 19:30N 51°49' E 003°23'0 0.0
2017-Nov-14 18:57N 51°49' E 003°23'0 0.1
2017-Nov-14 18:30N 51°49' E 003°22'0 0.0
2017-Nov-14 18:00N 51°49' E 003°22'0 0.0
2017-Nov-14 17:30N 51°49' E 003°22'0 0.0
2017-Nov-14 16:57N 51°49' E 003°22'0 0.2
2017-Nov-14 16:30N 51°49' E 003°23'0 0.2
2017-Nov-14 16:00N 51°49' E 003°23'0 0.1
2017-Nov-14 15:30N 51°49' E 003°23'0 0.1
2017-Nov-14 15:00N 51°49' E 003°23'0 0.1
2017-Nov-14 14:30N 51°49' E 003°23'0 0.1
2017-Nov-14 13:57N 51°49' E 003°23'0 0.0
2017-Nov-14 13:27N 51°49' E 003°23'0 0.0
2017-Nov-14 12:57N 51°49' E 003°23'0 0.0
2017-Nov-14 12:30N 51°49' E 003°23'1 1.2
2017-Nov-14 12:00N 51°50' E 003°23'5 9.2
2017-Nov-14 11:30N 51°54' E 003°20'913.2
2017-Nov-14 10:49N 52°03' E 003°21'410.4
2017-Nov-14 10:26N 52°07' E 003°23'510.7
2017-Nov-14 10:00N 52°11' E 003°24'711.0
2017-Nov-14 09:21N 52°18' E 003°26'411.4
2017-Nov-14 08:58N 52°23' E 003°27'711.9
2017-Nov-14 08:25N 52°29' E 003°29'512.2
2017-Nov-14 07:59N 52°34' E 003°30'611.7
2017-Nov-14 07:30N 52°39' E 003°34'612.0
2017-Nov-14 07:00N 52°44' E 003°40'612.0
2017-Nov-14 06:30N 52°49' E 003°46'611.9
2017-Nov-14 06:00N 52°53' E 003°52'176.8
2017-Nov-14 06:00N 52°54' E 003°54'510.0 280 / 181019.010.8 10.4 5.211.0
2017-Nov-14 05:30N 52°58' E 003°59'611.7
2017-Nov-14 05:00N 53°02' E 004°07'611.4
2017-Nov-14 04:30N 53°05' E 004°14'611.1
2017-Nov-14 04:00N 53°09' E 004°21'510.8
2017-Nov-14 03:30N 53°13' E 004°26'23 9.8
2017-Nov-14 01:09N 53°31' E 004°51'8311.6
2017-Nov-13 18:00N 53°54' E 007°06'53 3.3 290 / 151018.810.8 8.4 4.411.0
2017-Nov-13 01:59N 53°36' E 008°31'0 0.0
2017-Nov-13 01:29N 53°36' E 008°31'0 0.0
2017-Nov-13 00:59N 53°36' E 008°31'0 0.0
2017-Nov-13 00:29N 53°36' E 008°31'0 0.0
2017-Nov-12 23:59N 53°36' E 008°31'0 0.0
2017-Nov-12 23:29N 53°36' E 008°31'0 0.0
2017-Nov-12 22:59N 53°36' E 008°31'0 0.0
2017-Nov-12 22:29N 53°36' E 008°31'0 0.0
2017-Nov-12 21:59N 53°36' E 008°31'0 0.0
2017-Nov-12 21:29N 53°36' E 008°31'0 0.0
2017-Nov-12 20:59N 53°36' E 008°31'0 0.0
2017-Nov-12 20:29N 53°36' E 008°31'0 0.0
2017-Nov-12 19:59N 53°36' E 008°31'0 0.0
2017-Nov-12 19:29N 53°36' E 008°31'0 0.0
2017-Nov-12 18:59N 53°36' E 008°31'0 0.0
2017-Nov-12 18:29N 53°36' E 008°31'0 0.0
2017-Nov-12 17:59N 53°36' E 008°31'0 0.0
2017-Nov-12 17:29N 53°36' E 008°31'0 0.0
2017-Nov-12 16:59N 53°36' E 008°31'0 0.0
2017-Nov-12 16:26N 53°36' E 008°31'0 0.0
2017-Nov-12 15:59N 53°36' E 008°31'0 0.0
2017-Nov-12 15:29N 53°36' E 008°31'0 0.0
2017-Nov-12 14:59N 53°36' E 008°31'0 0.0
2017-Nov-12 14:29N 53°36' E 008°31'0 0.0
2017-Nov-12 13:59N 53°36' E 008°31'0 0.0
2017-Nov-12 13:29N 53°36' E 008°31'0 0.0
2017-Nov-12 13:00N 53°36' E 008°31'0 0.2
2017-Nov-12 12:30N 53°36' E 008°31'4 8.3
2017-Nov-12 12:00N 53°39' E 008°25'4 8.0
2017-Nov-12 11:31N 53°42' E 008°21'815.8
2017-Nov-12 11:00N 53°46' E 008°10'816.3
2017-Nov-12 10:30N 53°51' E 007°59'612.9
2017-Nov-12 10:00N 53°53' E 007°48'510.2
2017-Nov-12 09:30N 53°53' E 007°39'6 9.8
2017-Nov-12 08:53N 53°54' E 007°29'411.1
2017-Nov-12 08:30N 53°53' E 007°22'3614.4
2017-Nov-12 06:00N 53°42' E 006°24'5513.7 290 / 161001.010.8 8.2 0.711.0
2017-Nov-12 02:00N 53°28' E 004°55'1913.8
2017-Nov-12 00:36N 53°13' E 004°34'214.5
2017-Nov-12 00:26N 53°11' E 004°33'614.8
2017-Nov-12 00:00N 53°05' E 004°28'714.5
2017-Nov-11 23:30N 52°59' E 004°22'714.7
2017-Nov-11 23:00N 52°52' E 004°16'714.6
2017-Nov-11 22:30N 52°46' E 004°10'814.7
2017-Nov-11 21:59N 52°40' E 004°02'714.4
2017-Nov-11 21:30N 52°34' E 003°56'714.6
2017-Nov-11 21:00N 52°27' E 003°53'714.6
2017-Nov-11 20:30N 52°20' E 003°52'714.6
2017-Nov-11 20:00N 52°13' E 003°54'714.3
2017-Nov-11 19:31N 52°06' E 003°54'3 6.9
2017-Nov-11 19:00N 52°02' E 003°55'510.9
2017-Nov-11 18:30N 51°59' E 004°03'1 2.4
2017-Nov-11 18:00N 51°58' E 004°02'2 3.1
2017-Nov-11 17:30N 51°57' E 004°00'0 1.0
2017-Nov-11 17:00N 51°57' E 003°60'0 0.0
2017-Nov-11 16:30N 51°57' E 003°60'0 0.0
2017-Nov-11 16:00N 51°57' E 003°60'0 0.0
2017-Nov-11 15:30N 51°57' E 003°60'0 0.0
2017-Nov-11 15:00N 51°57' E 003°60'0 0.0
2017-Nov-11 14:30N 51°57' E 003°60'0 0.0
2017-Nov-11 14:00N 51°57' E 003°60'0 0.0
2017-Nov-11 13:30N 51°57' E 003°60'0 0.0
2017-Nov-11 13:00N 51°57' E 003°60'0 0.0
2017-Nov-11 12:30N 51°57' E 003°60'0 0.0
2017-Nov-11 12:00N 51°57' E 003°60'0 0.0
2017-Nov-11 11:30N 51°57' E 003°60'0 0.0
2017-Nov-11 11:00N 51°57' E 003°60'0 0.0
2017-Nov-11 10:30N 51°57' E 003°60'0 0.0
2017-Nov-11 10:00N 51°57' E 003°60'0 0.0
2017-Nov-11 09:30N 51°57' E 003°60'0 0.0
2017-Nov-11 09:00N 51°57' E 003°60'0 0.0
2017-Nov-11 08:30N 51°57' E 003°60'0 0.0
2017-Nov-11 08:00N 51°57' E 003°60'0 0.0
2017-Nov-11 07:30N 51°57' E 003°60'0 0.1
2017-Nov-11 07:00N 51°57' E 003°59'0 0.1
2017-Nov-11 06:30N 51°57' E 003°60'0 0.0
2017-Nov-11 06:00N 51°57' E 003°59'0 0.0
2017-Nov-11 05:30N 51°57' E 003°60'0 0.0
2017-Nov-11 05:00N 51°57' E 003°60'0 0.0
2017-Nov-11 04:30N 51°57' E 003°60'0 0.0
2017-Nov-11 04:00N 51°57' E 003°60'0 0.0
2017-Nov-11 03:30N 51°57' E 003°60'0 0.0
2017-Nov-11 03:00N 51°57' E 003°60'0 0.0
2017-Nov-11 02:30N 51°57' E 003°60'0 0.1
2017-Nov-11 02:01N 51°57' E 003°60'2 3.6
2017-Nov-11 01:31N 51°58' E 004°02'2 3.7
2017-Nov-11 01:00N 51°59' E 004°05'4 8.6
2017-Nov-11 00:30N 51°60' E 003°58'4 8.1
2017-Nov-11 00:00N 52°01' E 003°51'3 6.2
2017-Nov-10 23:31N 51°59' E 003°47'612.3
2017-Nov-10 23:01N 51°58' E 003°37'1912.5
2017-Nov-10 21:28N 51°53' E 003°07'511.7
2017-Nov-10 21:00N 51°53' E 002°58'812.1
2017-Nov-10 20:19N 51°53' E 002°45'812.4
2017-Nov-10 19:41N 51°53' E 002°32'212.5
2017-Nov-10 19:30N 51°53' E 002°28'612.7
2017-Nov-10 18:59N 51°53' E 002°18'612.8
2017-Nov-10 18:30N 51°52' E 002°08'613.0
2017-Nov-10 18:00N 51°50' E 001°58'6218399722.4
2017-Nov-10 18:00S 51°48' E 001°54'621712817.7 290 / 131018.410.8 9.8 3.112.0
2017-Nov-10 17:30N 51°49' E 001°48'612.9
2017-Nov-10 17:00N 51°52' E 001°39'4 8.6
2017-Nov-10 16:31N 51°54' E 001°34'713.2
2017-Nov-10 16:01N 51°56' E 001°23'4 7.2
2017-Nov-10 15:30N 51°57' E 001°18'0 0.0
2017-Nov-10 15:00N 51°58' E 001°18'0 0.0
2017-Nov-10 14:31N 51°58' E 001°18'0 0.0
2017-Nov-10 14:01N 51°57' E 001°18'0 0.0
2017-Nov-10 13:31N 51°57' E 001°18'0 0.0
2017-Nov-10 13:01N 51°58' E 001°18'0 0.0
2017-Nov-10 12:30N 51°58' E 001°18'0 0.0
2017-Nov-10 12:01N 51°57' E 001°18'0 0.0
2017-Nov-10 11:31N 51°58' E 001°18'0 0.0
2017-Nov-10 10:57N 51°57' E 001°18'0 0.0
2017-Nov-10 10:31N 51°58' E 001°18'0 0.0
2017-Nov-10 09:58N 51°57' E 001°18'0 0.0
2017-Nov-10 09:28N 51°58' E 001°18'0 0.0
2017-Nov-10 09:01N 51°58' E 001°18'0 0.0
2017-Nov-10 08:30N 51°57' E 001°18'0 0.0
2017-Nov-10 08:01N 51°57' E 001°18'0 0.0
2017-Nov-10 07:28N 51°57' E 001°18'0 0.0
2017-Nov-10 06:58N 51°57' E 001°18'0 0.0
2017-Nov-10 06:31N 51°58' E 001°18'0 0.0
2017-Nov-10 06:01N 51°58' E 001°18'  

Dump ship's entire track history